メインページ
METAR-TAF:

METAR-TAF

空港 :

Rouyn-Noranda, ケベック州, カナダ

緯度: 48-12N, 経度: 078-50W, 海抜: 301m

現時点の気象観測

当レポートは43分前の02:00(UTC)に作成
西の風 3kt
気温 -13°C
湿度 85%
気圧 1020 hPa
視程: 16.1km
高度8300ftの千切れ雲あり
小雪

METAR: CYUY 070200Z 26003KT 10SM -SN BKN083 M13/M15 A3011 RMK AC7 SLP225

時間: 21:43 (02:43 UTC)

予報

当レポートは2時間7分前の00:36(UTC)に作成
予報は07日の 00時(UTC)から 07日の 12時(UTC)まで有効
変向風 3kt
視程: 10km
高度1500ftの雲は散在している
高度4000ftの千切れ雲あり
高度9000ftの曇り
小雪
07日の 00時(UTC)から 07日の 06時(UTC)まで一時的に
視程: 3.2km
高度1500ftの曇り
小雪
07日の 0600時(UTC)から
西/北西の風 8kt
視程: 10km
高度1500ftの雲は散在している
高度9000ftの千切れ雲あり
07日の 06時(UTC)から 07日の 09時(UTC)まで一時的に
視程: 4.8km
高度1500ftの曇り
小雪
07日の 0900時(UTC)から
西/北西の風 8kt
視程: 10km
高度2000ftの千切れ雲あり

TAF: CYUY 070036Z 0700/0712 VRB03KT P6SM -SN SCT015 BKN040 OVC090 TEMPO 0700/0706 2SM -SN OVC015 FM070600 30008KT P6SM SCT015 BKN090 TEMPO 0706/0709 3SM -SN OVC015 FM070900 29008KT P6SM BKN020 RMK NXT FCST BY 070600Z

4,000以上の空港の気象観測と天気予報(METAR報とTAF報)

利用可能な観測所は地図上に黄色い丸と赤い丸で示す。

丸の上にカーソルを重ねると観測所名を参照できる。

次にクリックすると気象観測と天気予報を参照できる。

マップの切り替え:黒色「×」印の緑ボタンをクリックして拡大、「-」印の緑ボタンをクリックして縮小、緑色の三角印をクリックして隣りの地図に切り替え


METAR-TAF: